Navigator Spirit — C6WL4 — position and weather

sailwx.info

Track history (hours):
 
Tides and Currents Weather Stations Pressure Air Temp Water Temp Dewpoint Dewpoint Depression Visibility Wind Speed Wind Dir Waves Ship Positions

Navigator Spirit

Last reported at 2014-Nov-21 06:33 UTC. Time now 2014-Nov-23 12:23 UTC.
Position N 41°04' E 001°17'.

Length 241 m; draft 11.9 m.

Type: Tanker. MMSI: 309198000.

Date/timePositionNaut miles runAvg speedWind from/ knotsBaromVisibWave heightAir tempDewpointWater temp
2014-Nov-21 06:33N 41°04' E 001°17'14 0.4
2014-Nov-19 23:12N 40°52' E 001°09'3813.9
2014-Nov-19 20:26N 40°14' E 000°59'1213.5
2014-Nov-19 19:33N 40°03' E 000°56'8413.3
2014-Nov-19 13:15N 38°41' E 000°34'913.0
2014-Nov-19 12:33N 38°33' E 000°27'1313.2
2014-Nov-19 11:33N 38°22' E 000°19'1613.3
2014-Nov-19 10:19N 38°08' E 000°08'1113.7
2014-Nov-19 09:32N 37°58' E 000°01'1813.7
2014-Nov-19 08:15N 37°43' W 000°10'912.9
2014-Nov-19 07:33N 37°36' W 000°16'1413.4
2014-Nov-19 06:31N 37°27' W 000°30'1313.4
2014-Nov-19 05:32N 37°19' W 000°43'3313.7
2014-Nov-19 03:06N 36°58' W 001°15'2413.9
2014-Nov-19 01:22N 36°43' W 001°38'1113.9
2014-Nov-19 00:33N 36°35' W 001°49'16814.0
2014-Nov-18 12:33N 36°02' W 005°14'8 6.9
2014-Nov-18 11:21N 36°07' W 005°22'0 0.0
2014-Nov-18 07:33N 36°07' W 005°22'0 0.1
2014-Nov-18 06:24N 36°07' W 005°22'0 0.0
2014-Nov-18 05:24N 36°07' W 005°22'0 0.0
2014-Nov-18 03:33N 36°07' W 005°22'0 0.1
2014-Nov-18 02:30N 36°07' W 005°22'1 0.8
2014-Nov-18 01:33N 36°06' W 005°22'4 3.8
2014-Nov-18 00:33N 36°06' W 005°17'1 1.3
2014-Nov-17 23:33N 36°06' W 005°16'4 4.1
2014-Nov-17 22:33N 36°07' W 005°11'1 0.5
2014-Nov-17 21:33N 36°07' W 005°10'1 0.5
2014-Nov-17 20:33N 36°07' W 005°11'1 0.6
2014-Nov-17 19:32N 36°07' W 005°11'0 0.4
2014-Nov-17 18:33N 36°07' W 005°12'0 0.3
2014-Nov-17 17:33N 36°07' W 005°12'0 0.5
2014-Nov-17 16:31N 36°07' W 005°12'7 7.0
2014-Nov-17 15:33N 36°02' W 005°17'  
Track history (hours):
 
Tides and Currents Weather Stations Pressure Air Temp Water Temp Dewpoint Dewpoint Depression Visibility Wind Speed Wind Dir Waves Ship Positions

Navigator Spirit

Last reported at 2014-Nov-21 06:33 UTC. Time now 2014-Nov-23 12:23 UTC.
Position N 41°04' E 001°17'.

Length 241 m; draft 11.9 m.

Type: Tanker. MMSI: 309198000.

Date/timePositionNaut miles runAvg speedWind from/ knotsBaromVisibWave heightAir tempDewpointWater temp
2014-Nov-21 06:33N 41°04' E 001°17'14 0.4
2014-Nov-19 23:12N 40°52' E 001°09'3813.9
2014-Nov-19 20:26N 40°14' E 000°59'1213.5
2014-Nov-19 19:33N 40°03' E 000°56'8413.3
2014-Nov-19 13:15N 38°41' E 000°34'913.0
2014-Nov-19 12:33N 38°33' E 000°27'1313.2
2014-Nov-19 11:33N 38°22' E 000°19'1613.3
2014-Nov-19 10:19N 38°08' E 000°08'1113.7
2014-Nov-19 09:32N 37°58' E 000°01'1813.7
2014-Nov-19 08:15N 37°43' W 000°10'912.9
2014-Nov-19 07:33N 37°36' W 000°16'1413.4
2014-Nov-19 06:31N 37°27' W 000°30'1313.4
2014-Nov-19 05:32N 37°19' W 000°43'3313.7
2014-Nov-19 03:06N 36°58' W 001°15'2413.9
2014-Nov-19 01:22N 36°43' W 001°38'1113.9
2014-Nov-19 00:33N 36°35' W 001°49'16814.0
2014-Nov-18 12:33N 36°02' W 005°14'8 6.9
2014-Nov-18 11:21N 36°07' W 005°22'0 0.0
2014-Nov-18 07:33N 36°07' W 005°22'0 0.1
2014-Nov-18 06:24N 36°07' W 005°22'0 0.0
2014-Nov-18 05:24N 36°07' W 005°22'0 0.0
2014-Nov-18 03:33N 36°07' W 005°22'0 0.1
2014-Nov-18 02:30N 36°07' W 005°22'1 0.8
2014-Nov-18 01:33N 36°06' W 005°22'4 3.8
2014-Nov-18 00:33N 36°06' W 005°17'1 1.3
2014-Nov-17 23:33N 36°06' W 005°16'4 4.1
2014-Nov-17 22:33N 36°07' W 005°11'1 0.5
2014-Nov-17 21:33N 36°07' W 005°10'1 0.5
2014-Nov-17 20:33N 36°07' W 005°11'1 0.6
2014-Nov-17 19:32N 36°07' W 005°11'0 0.4
2014-Nov-17 18:33N 36°07' W 005°12'0 0.3
2014-Nov-17 17:33N 36°07' W 005°12'0 0.5
2014-Nov-17 16:31N 36°07' W 005°12'7 7.0
2014-Nov-17 15:33N 36°02' W 005°17'  

Dump ship's entire track history